Detailed System and Site Information

System Data Health
Measure Timestamp Ago Health
Web Server Live 22:37:32, 1st February 2015 0 s health
Last live-data upload from local system (nw3) 22:37:27, 1st February 2015 5 s health
Last upload of secondary data 23:00:33, 31st January 2015 24 hours health
Latest Webcam upload 22:37:08, 1st February 2015 24 s health
Last upload of 24hr data log 22:34:08, 1st February 2015 3 mins health
Last full data process 22:35:01, 1st February 2015 3 mins health
Last data downtime (>15 mins) 22:31:01, 6th January 2015 26 days
Local System and Site Information
Measure Value
WD Version & Build # 10.37R - 40
WD Start Time 22:29 06/01/15
WD Data Count 753533
WD Memory Use 55,868 K
--- ---
Windows Uptime 25 Days 0 Hours 32 Minutes 24 Seconds
Free System Memory 2426 MB (Max: 4GB)
--- ---
Station Altitude 57 m (187 ft)
Station Latitude 51.556
Station Longitude -0.154
Machine Room Conditions
Measure Value
Temperature 19.2 °C
Temperature Trend -0.8 °C /hr
Relative Humidity 33%
Dew Point 2.5 °C
--- ---
Tmin Today 15.6 °C at 07:08
Tmax Today 30.0 °C at 20:09
Hmin Today 32% at 22:35
Hmax Today 50% at 20:09
Tmin Yesterday 6.0 °C at 10:08
Tmax Yesterday 19.6 °C at 00:00

Site owner and administrator: Ben Lee-Rodgers (2010 - present)

Last 10hrs Temp/Hum for Secondary Sensor and Indoors

Extra Sensors/Indoor

Other

Raw METAR from EGLL (Heathrow)

EGLL 012220Z 31005KT CAVOK 01/M04 Q1005
Decode Instructions
Source

WD Screenshot

not available